sensor_id;sensor_type;location;lat;lon;timestamp;temperature;humidity
43151;DHT22;28755;51.478;5.702;2023-12-04T00:01:15;1.10;99.90
43151;DHT22;28755;51.478;5.702;2023-12-04T00:03:40;1.50;99.90
43151;DHT22;28755;51.478;5.702;2023-12-04T00:06:06;1.20;99.90
43151;DHT22;28755;51.478;5.702;2023-12-04T00:08:32;1.20;99.90
43151;DHT22;28755;51.478;5.702;2023-12-04T00:10:59;1.10;99.90
43151;DHT22;28755;51.478;5.702;2023-12-04T00:13:24;1.20;99.90
43151;DHT22;28755;51.478;5.702;2023-12-04T00:15:50;1.20;99.90
43151;DHT22;28755;51.478;5.702;2023-12-04T00:18:15;1.20;99.90
43151;DHT22;28755;51.478;5.702;2023-12-04T00:20:41;1.20;99.90
43151;DHT22;28755;51.478;5.702;2023-12-04T00:23:07;1.20;99.90
43151;DHT22;28755;51.478;5.702;2023-12-04T00:25:32;1.20;99.90
43151;DHT22;28755;51.478;5.702;2023-12-04T00:27:58;1.20;99.90
43151;DHT22;28755;51.478;5.702;2023-12-04T00:30:23;1.20;99.90
43151;DHT22;28755;51.478;5.702;2023-12-04T00:32:49;1.20;99.90
43151;DHT22;28755;51.478;5.702;2023-12-04T00:35:14;1.40;99.90
43151;DHT22;28755;51.478;5.702;2023-12-04T00:37:40;1.30;99.90
43151;DHT22;28755;51.478;5.702;2023-12-04T00:40:06;1.30;99.90
43151;DHT22;28755;51.478;5.702;2023-12-04T00:42:33;1.30;99.90
43151;DHT22;28755;51.478;5.702;2023-12-04T00:44:58;1.40;99.90
43151;DHT22;28755;51.478;5.702;2023-12-04T00:47:24;1.40;99.90
43151;DHT22;28755;51.478;5.702;2023-12-04T00:49:50;1.20;99.90
43151;DHT22;28755;51.478;5.702;2023-12-04T00:52:15;1.70;99.90
43151;DHT22;28755;51.478;5.702;2023-12-04T00:54:41;1.40;99.90
43151;DHT22;28755;51.478;5.702;2023-12-04T00:57:07;1.50;99.90
43151;DHT22;28755;51.478;5.702;2023-12-04T00:59:32;1.50;99.90
43151;DHT22;28755;51.478;5.702;2023-12-04T01:01:58;1.80;99.90
43151;DHT22;28755;51.478;5.702;2023-12-04T01:04:23;1.30;99.90
43151;DHT22;28755;51.478;5.702;2023-12-04T01:06:49;1.40;99.90
43151;DHT22;28755;51.478;5.702;2023-12-04T01:09:15;1.40;99.90
43151;DHT22;28755;51.478;5.702;2023-12-04T01:11:40;1.40;99.90
43151;DHT22;28755;51.478;5.702;2023-12-04T01:14:06;1.40;99.90
43151;DHT22;28755;51.478;5.702;2023-12-04T01:16:32;1.40;99.90
43151;DHT22;28755;51.478;5.702;2023-12-04T01:18:57;1.50;99.90
43151;DHT22;28755;51.478;5.702;2023-12-04T01:21:23;1.40;99.90
43151;DHT22;28755;51.478;5.702;2023-12-04T01:23:48;1.40;99.90
43151;DHT22;28755;51.478;5.702;2023-12-04T01:26:14;1.40;99.90
43151;DHT22;28755;51.478;5.702;2023-12-04T01:28:39;1.60;99.90
43151;DHT22;28755;51.478;5.702;2023-12-04T01:31:06;1.50;99.90
43151;DHT22;28755;51.478;5.702;2023-12-04T01:33:32;1.50;99.90
43151;DHT22;28755;51.478;5.702;2023-12-04T01:35:57;1.50;99.90
43151;DHT22;28755;51.478;5.702;2023-12-04T01:38:23;1.50;99.90
43151;DHT22;28755;51.478;5.702;2023-12-04T01:40:48;1.50;99.90
43151;DHT22;28755;51.478;5.702;2023-12-04T01:43:14;1.40;99.90
43151;DHT22;28755;51.478;5.702;2023-12-04T01:45:40;1.40;99.90
43151;DHT22;28755;51.478;5.702;2023-12-04T01:48:07;1.70;99.90
43151;DHT22;28755;51.478;5.702;2023-12-04T01:50:35;1.40;99.90
43151;DHT22;28755;51.478;5.702;2023-12-04T01:53:01;1.40;99.90
43151;DHT22;28755;51.478;5.702;2023-12-04T01:55:28;1.50;99.90
43151;DHT22;28755;51.478;5.702;2023-12-04T01:57:55;1.50;99.90
43151;DHT22;28755;51.478;5.702;2023-12-04T02:00:21;1.50;99.90
43151;DHT22;28755;51.478;5.702;2023-12-04T02:02:47;1.50;99.90
43151;DHT22;28755;51.478;5.702;2023-12-04T02:05:13;1.50;99.90
43151;DHT22;28755;51.478;5.702;2023-12-04T02:07:41;1.60;99.90
43151;DHT22;28755;51.478;5.702;2023-12-04T02:10:07;1.50;99.90
43151;DHT22;28755;51.478;5.702;2023-12-04T02:12:33;1.50;99.90
43151;DHT22;28755;51.478;5.702;2023-12-04T02:14:59;1.50;99.90
43151;DHT22;28755;51.478;5.702;2023-12-04T02:17:26;1.50;99.90
43151;DHT22;28755;51.478;5.702;2023-12-04T02:19:52;1.40;99.90
43151;DHT22;28755;51.478;5.702;2023-12-04T02:22:18;1.50;99.90
43151;DHT22;28755;51.478;5.702;2023-12-04T02:24:45;1.50;99.90
43151;DHT22;28755;51.478;5.702;2023-12-04T02:27:16;1.60;99.90
43151;DHT22;28755;51.478;5.702;2023-12-04T02:29:47;1.40;99.90
43151;DHT22;28755;51.478;5.702;2023-12-04T02:32:19;1.70;99.90
43151;DHT22;28755;51.478;5.702;2023-12-04T02:34:45;1.50;99.90
43151;DHT22;28755;51.478;5.702;2023-12-04T02:37:14;1.50;99.90
43151;DHT22;28755;51.478;5.702;2023-12-04T02:39:40;1.40;99.90
43151;DHT22;28755;51.478;5.702;2023-12-04T02:42:06;1.50;99.90
43151;DHT22;28755;51.478;5.702;2023-12-04T02:44:32;1.60;99.90
43151;DHT22;28755;51.478;5.702;2023-12-04T02:46:57;1.60;99.90
43151;DHT22;28755;51.478;5.702;2023-12-04T02:49:23;1.50;99.90
43151;DHT22;28755;51.478;5.702;2023-12-04T02:51:48;1.60;99.90
43151;DHT22;28755;51.478;5.702;2023-12-04T02:54:14;1.40;99.90
43151;DHT22;28755;51.478;5.702;2023-12-04T02:56:40;1.40;99.90
43151;DHT22;28755;51.478;5.702;2023-12-04T02:59:05;1.50;99.90
43151;DHT22;28755;51.478;5.702;2023-12-04T03:01:31;1.40;99.90
43151;DHT22;28755;51.478;5.702;2023-12-04T03:03:56;1.40;99.90
43151;DHT22;28755;51.478;5.702;2023-12-04T03:06:22;1.30;99.90
43151;DHT22;28755;51.478;5.702;2023-12-04T03:08:48;1.30;99.90
43151;DHT22;28755;51.478;5.702;2023-12-04T03:11:13;1.50;99.90
43151;DHT22;28755;51.478;5.702;2023-12-04T03:13:39;1.30;99.90
43151;DHT22;28755;51.478;5.702;2023-12-04T03:16:05;1.20;99.90
43151;DHT22;28755;51.478;5.702;2023-12-04T03:18:30;1.30;99.90
43151;DHT22;28755;51.478;5.702;2023-12-04T03:20:56;1.20;99.90
43151;DHT22;28755;51.478;5.702;2023-12-04T03:23:22;1.30;99.90
43151;DHT22;28755;51.478;5.702;2023-12-04T03:25:47;1.30;99.90
43151;DHT22;28755;51.478;5.702;2023-12-04T03:28:13;1.30;99.90
43151;DHT22;28755;51.478;5.702;2023-12-04T03:30:41;2.00;99.90
43151;DHT22;28755;51.478;5.702;2023-12-04T03:33:09;1.30;99.90
43151;DHT22;28755;51.478;5.702;2023-12-04T03:35:34;1.30;99.90
43151;DHT22;28755;51.478;5.702;2023-12-04T03:38:00;1.50;99.90
43151;DHT22;28755;51.478;5.702;2023-12-04T03:40:26;1.10;99.90
43151;DHT22;28755;51.478;5.702;2023-12-04T03:42:51;1.20;99.90
43151;DHT22;28755;51.478;5.702;2023-12-04T03:45:17;1.30;99.90
43151;DHT22;28755;51.478;5.702;2023-12-04T03:47:42;1.20;99.90
43151;DHT22;28755;51.478;5.702;2023-12-04T03:50:08;1.30;99.90
43151;DHT22;28755;51.478;5.702;2023-12-04T03:52:34;1.20;99.90
43151;DHT22;28755;51.478;5.702;2023-12-04T03:54:59;1.30;99.90
43151;DHT22;28755;51.478;5.702;2023-12-04T03:57:25;1.20;99.90
43151;DHT22;28755;51.478;5.702;2023-12-04T03:59:50;1.50;99.90
43151;DHT22;28755;51.478;5.702;2023-12-04T04:02:16;1.20;99.90
43151;DHT22;28755;51.478;5.702;2023-12-04T04:04:42;1.30;99.90
43151;DHT22;28755;51.478;5.702;2023-12-04T04:07:08;1.20;99.90
43151;DHT22;28755;51.478;5.702;2023-12-04T04:09:34;1.30;99.90
43151;DHT22;28755;51.478;5.702;2023-12-04T04:11:59;1.30;99.90
43151;DHT22;28755;51.478;5.702;2023-12-04T04:14:25;1.30;99.90
43151;DHT22;28755;51.478;5.702;2023-12-04T04:16:50;1.40;99.90
43151;DHT22;28755;51.478;5.702;2023-12-04T04:19:16;1.20;99.90
43151;DHT22;28755;51.478;5.702;2023-12-04T04:21:42;1.30;99.90
43151;DHT22;28755;51.478;5.702;2023-12-04T04:24:07;1.30;99.90
43151;DHT22;28755;51.478;5.702;2023-12-04T04:26:33;1.30;99.90
43151;DHT22;28755;51.478;5.702;2023-12-04T04:28:58;1.40;99.90
43151;DHT22;28755;51.478;5.702;2023-12-04T04:31:25;1.40;99.90
43151;DHT22;28755;51.478;5.702;2023-12-04T04:33:50;1.30;99.90
43151;DHT22;28755;51.478;5.702;2023-12-04T04:36:16;1.80;99.90
43151;DHT22;28755;51.478;5.702;2023-12-04T04:38:41;1.20;99.90
43151;DHT22;28755;51.478;5.702;2023-12-04T04:41:07;1.30;99.90
43151;DHT22;28755;51.478;5.702;2023-12-04T04:43:38;1.20;99.90
43151;DHT22;28755;51.478;5.702;2023-12-04T04:46:03;1.30;99.90
43151;DHT22;28755;51.478;5.702;2023-12-04T04:48:29;1.30;99.90
43151;DHT22;28755;51.478;5.702;2023-12-04T04:50:55;1.30;99.90
43151;DHT22;28755;51.478;5.702;2023-12-04T04:53:20;1.30;99.90
43151;DHT22;28755;51.478;5.702;2023-12-04T04:55:46;1.30;99.90
43151;DHT22;28755;51.478;5.702;2023-12-04T04:58:12;1.30;99.90
43151;DHT22;28755;51.478;5.702;2023-12-04T05:00:37;1.30;99.90
43151;DHT22;28755;51.478;5.702;2023-12-04T05:03:03;1.30;99.90
43151;DHT22;28755;51.478;5.702;2023-12-04T05:05:28;1.30;99.90
43151;DHT22;28755;51.478;5.702;2023-12-04T05:07:54;1.30;99.90
43151;DHT22;28755;51.478;5.702;2023-12-04T05:10:19;1.30;99.90
43151;DHT22;28755;51.478;5.702;2023-12-04T05:12:45;1.30;99.90
43151;DHT22;28755;51.478;5.702;2023-12-04T05:15:11;1.50;99.90
43151;DHT22;28755;51.478;5.702;2023-12-04T05:17:36;1.30;99.90
43151;DHT22;28755;51.478;5.702;2023-12-04T05:20:02;1.40;99.90
43151;DHT22;28755;51.478;5.702;2023-12-04T05:22:27;1.40;99.90
43151;DHT22;28755;51.478;5.702;2023-12-04T05:24:53;1.40;99.90
43151;DHT22;28755;51.478;5.702;2023-12-04T05:27:19;1.50;99.90
43151;DHT22;28755;51.478;5.702;2023-12-04T05:29:44;1.40;99.90
43151;DHT22;28755;51.478;5.702;2023-12-04T05:32:10;1.50;99.90
43151;DHT22;28755;51.478;5.702;2023-12-04T05:34:35;1.40;99.90
43151;DHT22;28755;51.478;5.702;2023-12-04T05:37:01;1.30;99.90
43151;DHT22;28755;51.478;5.702;2023-12-04T05:39:26;1.40;99.90
43151;DHT22;28755;51.478;5.702;2023-12-04T05:41:52;1.30;99.90
43151;DHT22;28755;51.478;5.702;2023-12-04T05:44:18;1.40;99.90
43151;DHT22;28755;51.478;5.702;2023-12-04T05:46:43;1.30;99.90
43151;DHT22;28755;51.478;5.702;2023-12-04T05:49:09;1.40;99.90
43151;DHT22;28755;51.478;5.702;2023-12-04T05:51:35;1.50;99.90
43151;DHT22;28755;51.478;5.702;2023-12-04T05:54:01;1.40;99.90
43151;DHT22;28755;51.478;5.702;2023-12-04T05:56:26;1.40;99.90
43151;DHT22;28755;51.478;5.702;2023-12-04T05:58:52;1.50;99.90
43151;DHT22;28755;51.478;5.702;2023-12-04T06:01:18;1.60;99.90
43151;DHT22;28755;51.478;5.702;2023-12-04T06:03:44;1.50;99.90
43151;DHT22;28755;51.478;5.702;2023-12-04T06:06:10;1.50;99.90
43151;DHT22;28755;51.478;5.702;2023-12-04T06:08:35;1.50;99.90
43151;DHT22;28755;51.478;5.702;2023-12-04T06:11:01;1.40;99.90
43151;DHT22;28755;51.478;5.702;2023-12-04T06:13:26;1.40;99.90
43151;DHT22;28755;51.478;5.702;2023-12-04T06:15:52;1.60;99.90
43151;DHT22;28755;51.478;5.702;2023-12-04T06:18:18;1.50;99.90
43151;DHT22;28755;51.478;5.702;2023-12-04T06:20:43;1.50;99.90
43151;DHT22;28755;51.478;5.702;2023-12-04T06:23:09;1.70;99.90
43151;DHT22;28755;51.478;5.702;2023-12-04T06:25:35;1.50;99.90
43151;DHT22;28755;51.478;5.702;2023-12-04T06:28:01;1.50;99.90
43151;DHT22;28755;51.478;5.702;2023-12-04T06:30:27;1.50;99.90
43151;DHT22;28755;51.478;5.702;2023-12-04T06:32:53;1.50;99.90
43151;DHT22;28755;51.478;5.702;2023-12-04T06:35:19;1.50;99.90
43151;DHT22;28755;51.478;5.702;2023-12-04T06:37:45;1.50;99.90
43151;DHT22;28755;51.478;5.702;2023-12-04T06:40:11;1.50;99.90
43151;DHT22;28755;51.478;5.702;2023-12-04T06:42:38;1.50;99.90
43151;DHT22;28755;51.478;5.702;2023-12-04T06:45:04;1.50;99.90
43151;DHT22;28755;51.478;5.702;2023-12-04T06:47:31;1.50;99.90
43151;DHT22;28755;51.478;5.702;2023-12-04T06:49:59;1.50;99.90
43151;DHT22;28755;51.478;5.702;2023-12-04T06:52:24;2.00;99.90
43151;DHT22;28755;51.478;5.702;2023-12-04T06:54:50;1.80;99.90
43151;DHT22;28755;51.478;5.702;2023-12-04T06:57:16;1.60;99.90
43151;DHT22;28755;51.478;5.702;2023-12-04T06:59:44;1.50;99.90
43151;DHT22;28755;51.478;5.702;2023-12-04T07:02:10;1.50;99.90
43151;DHT22;28755;51.478;5.702;2023-12-04T07:04:35;1.60;99.90
43151;DHT22;28755;51.478;5.702;2023-12-04T07:07:02;1.70;99.90
43151;DHT22;28755;51.478;5.702;2023-12-04T07:09:33;1.90;99.90
43151;DHT22;28755;51.478;5.702;2023-12-04T07:12:00;1.70;99.90
43151;DHT22;28755;51.478;5.702;2023-12-04T07:14:26;1.70;99.90
43151;DHT22;28755;51.478;5.702;2023-12-04T07:16:51;1.60;99.90
43151;DHT22;28755;51.478;5.702;2023-12-04T07:19:17;1.60;99.90
43151;DHT22;28755;51.478;5.702;2023-12-04T07:21:43;1.80;99.90
43151;DHT22;28755;51.478;5.702;2023-12-04T07:24:09;1.90;99.90
43151;DHT22;28755;51.478;5.702;2023-12-04T07:26:35;1.60;99.90
43151;DHT22;28755;51.478;5.702;2023-12-04T07:29:02;1.60;99.90
43151;DHT22;28755;51.478;5.702;2023-12-04T07:31:28;1.60;99.90
43151;DHT22;28755;51.478;5.702;2023-12-04T07:33:54;1.80;99.90
43151;DHT22;28755;51.478;5.702;2023-12-04T07:36:19;1.60;99.90
43151;DHT22;28755;51.478;5.702;2023-12-04T07:38:45;1.60;99.90
43151;DHT22;28755;51.478;5.702;2023-12-04T07:41:11;1.70;99.90
43151;DHT22;28755;51.478;5.702;2023-12-04T07:43:36;1.80;99.90
43151;DHT22;28755;51.478;5.702;2023-12-04T07:46:02;1.70;99.90
43151;DHT22;28755;51.478;5.702;2023-12-04T07:48:29;1.70;99.90
43151;DHT22;28755;51.478;5.702;2023-12-04T07:50:55;1.70;99.90
43151;DHT22;28755;51.478;5.702;2023-12-04T07:53:21;1.70;99.90
43151;DHT22;28755;51.478;5.702;2023-12-04T07:55:48;1.70;99.90
43151;DHT22;28755;51.478;5.702;2023-12-04T07:58:17;1.70;99.90
43151;DHT22;28755;51.478;5.702;2023-12-04T08:00:45;2.10;99.90
43151;DHT22;28755;51.478;5.702;2023-12-04T08:03:11;1.80;99.90
43151;DHT22;28755;51.478;5.702;2023-12-04T08:05:37;1.80;99.90
43151;DHT22;28755;51.478;5.702;2023-12-04T08:08:03;1.80;99.90
43151;DHT22;28755;51.478;5.702;2023-12-04T08:10:28;1.90;99.90
43151;DHT22;28755;51.478;5.702;2023-12-04T08:12:54;1.80;99.90
43151;DHT22;28755;51.478;5.702;2023-12-04T08:15:19;1.80;99.90
43151;DHT22;28755;51.478;5.702;2023-12-04T08:17:45;1.80;99.90
43151;DHT22;28755;51.478;5.702;2023-12-04T08:20:11;2.00;99.90
43151;DHT22;28755;51.478;5.702;2023-12-04T08:22:41;1.90;99.90
43151;DHT22;28755;51.478;5.702;2023-12-04T08:25:07;1.90;99.90
43151;DHT22;28755;51.478;5.702;2023-12-04T08:27:33;1.90;99.90
43151;DHT22;28755;51.478;5.702;2023-12-04T08:29:59;2.10;99.90
43151;DHT22;28755;51.478;5.702;2023-12-04T08:32:25;1.90;99.90
43151;DHT22;28755;51.478;5.702;2023-12-04T08:34:52;2.00;99.90
43151;DHT22;28755;51.478;5.702;2023-12-04T08:37:20;2.00;99.90
43151;DHT22;28755;51.478;5.702;2023-12-04T08:39:46;2.00;99.90
43151;DHT22;28755;51.478;5.702;2023-12-04T08:42:12;2.00;99.90
43151;DHT22;28755;51.478;5.702;2023-12-04T08:44:38;2.00;99.90
43151;DHT22;28755;51.478;5.702;2023-12-04T08:47:04;2.00;99.90
43151;DHT22;28755;51.478;5.702;2023-12-04T08:49:30;2.00;99.90
43151;DHT22;28755;51.478;5.702;2023-12-04T08:51:56;2.10;99.90
43151;DHT22;28755;51.478;5.702;2023-12-04T08:54:21;2.00;99.90
43151;DHT22;28755;51.478;5.702;2023-12-04T08:56:47;2.00;99.90
43151;DHT22;28755;51.478;5.702;2023-12-04T08:59:13;2.00;99.90
43151;DHT22;28755;51.478;5.702;2023-12-04T09:01:39;2.10;99.90
43151;DHT22;28755;51.478;5.702;2023-12-04T09:04:04;2.30;99.90
43151;DHT22;28755;51.478;5.702;2023-12-04T09:06:30;2.10;99.90
43151;DHT22;28755;51.478;5.702;2023-12-04T09:08:56;2.10;99.90
43151;DHT22;28755;51.478;5.702;2023-12-04T09:11:22;1.90;99.90
43151;DHT22;28755;51.478;5.702;2023-12-04T09:13:47;2.10;99.90
43151;DHT22;28755;51.478;5.702;2023-12-04T09:16:13;2.20;99.90
43151;DHT22;28755;51.478;5.702;2023-12-04T09:18:39;2.20;99.90
43151;DHT22;28755;51.478;5.702;2023-12-04T09:21:07;2.30;99.90
43151;DHT22;28755;51.478;5.702;2023-12-04T09:23:34;2.80;99.90
43151;DHT22;28755;51.478;5.702;2023-12-04T09:26:00;2.20;99.90
43151;DHT22;28755;51.478;5.702;2023-12-04T09:28:25;2.20;99.90
43151;DHT22;28755;51.478;5.702;2023-12-04T09:30:51;2.30;99.90
43151;DHT22;28755;51.478;5.702;2023-12-04T09:33:16;2.30;99.90
43151;DHT22;28755;51.478;5.702;2023-12-04T09:35:42;2.30;99.90
43151;DHT22;28755;51.478;5.702;2023-12-04T09:38:08;2.30;99.90
43151;DHT22;28755;51.478;5.702;2023-12-04T09:40:33;2.30;99.90
43151;DHT22;28755;51.478;5.702;2023-12-04T09:42:59;2.30;99.90
43151;DHT22;28755;51.478;5.702;2023-12-04T09:45:25;2.40;99.90
43151;DHT22;28755;51.478;5.702;2023-12-04T09:47:51;2.40;99.90
43151;DHT22;28755;51.478;5.702;2023-12-04T09:50:17;2.40;99.90
43151;DHT22;28755;51.478;5.702;2023-12-04T09:52:50;2.30;99.90
43151;DHT22;28755;51.478;5.702;2023-12-04T09:55:17;2.60;99.90
43151;DHT22;28755;51.478;5.702;2023-12-04T09:57:46;3.00;99.90
43151;DHT22;28755;51.478;5.702;2023-12-04T10:00:13;2.60;99.90
43151;DHT22;28755;51.478;5.702;2023-12-04T10:02:42;2.60;99.90
43151;DHT22;28755;51.478;5.702;2023-12-04T10:05:09;2.60;99.90
43151;DHT22;28755;51.478;5.702;2023-12-04T10:07:35;2.60;99.90
43151;DHT22;28755;51.478;5.702;2023-12-04T10:10:02;2.70;99.90
43151;DHT22;28755;51.478;5.702;2023-12-04T10:12:31;2.70;99.90
43151;DHT22;28755;51.478;5.702;2023-12-04T10:15:09;2.70;99.90
43151;DHT22;28755;51.478;5.702;2023-12-04T10:17:39;2.70;99.90
43151;DHT22;28755;51.478;5.702;2023-12-04T10:22:42;2.70;99.90
43151;DHT22;28755;51.478;5.702;2023-12-04T10:25:17;2.70;99.90
43151;DHT22;28755;51.478;5.702;2023-12-04T10:27:44;2.80;99.90
43151;DHT22;28755;51.478;5.702;2023-12-04T10:30:10;2.80;99.90
43151;DHT22;28755;51.478;5.702;2023-12-04T10:32:40;2.90;99.90
43151;DHT22;28755;51.478;5.702;2023-12-04T10:35:07;2.90;99.90
43151;DHT22;28755;51.478;5.702;2023-12-04T10:37:38;3.00;99.90
43151;DHT22;28755;51.478;5.702;2023-12-04T10:40:04;3.00;99.90
43151;DHT22;28755;51.478;5.702;2023-12-04T10:42:33;3.10;99.90
43151;DHT22;28755;51.478;5.702;2023-12-04T10:45:00;3.20;99.90
43151;DHT22;28755;51.478;5.702;2023-12-04T10:47:27;3.20;99.90
43151;DHT22;28755;51.478;5.702;2023-12-04T10:49:53;3.20;99.90
43151;DHT22;28755;51.478;5.702;2023-12-04T10:52:20;3.30;99.90
43151;DHT22;28755;51.478;5.702;2023-12-04T10:54:50;3.30;99.90
43151;DHT22;28755;51.478;5.702;2023-12-04T10:57:26;3.30;99.90
43151;DHT22;28755;51.478;5.702;2023-12-04T10:59:56;3.40;99.90
43151;DHT22;28755;51.478;5.702;2023-12-04T11:02:22;3.40;99.90
43151;DHT22;28755;51.478;5.702;2023-12-04T11:04:55;3.70;99.90
43151;DHT22;28755;51.478;5.702;2023-12-04T11:07:24;3.50;99.90
43151;DHT22;28755;51.478;5.702;2023-12-04T11:09:52;3.50;99.90
43151;DHT22;28755;51.478;5.702;2023-12-04T11:12:21;3.50;99.90
43151;DHT22;28755;51.478;5.702;2023-12-04T11:14:56;3.50;99.90
43151;DHT22;28755;51.478;5.702;2023-12-04T11:17:23;3.60;99.90
43151;DHT22;28755;51.478;5.702;2023-12-04T11:20:00;3.60;99.90
43151;DHT22;28755;51.478;5.702;2023-12-04T11:22:27;3.60;99.90
43151;DHT22;28755;51.478;5.702;2023-12-04T11:24:54;3.60;99.90
43151;DHT22;28755;51.478;5.702;2023-12-04T11:27:21;3.60;99.90
43151;DHT22;28755;51.478;5.702;2023-12-04T11:29:48;3.50;99.90
43151;DHT22;28755;51.478;5.702;2023-12-04T11:32:15;3.50;99.90
43151;DHT22;28755;51.478;5.702;2023-12-04T11:34:54;3.40;99.90
43151;DHT22;28755;51.478;5.702;2023-12-04T11:37:22;3.30;99.90
43151;DHT22;28755;51.478;5.702;2023-12-04T11:39:49;3.30;99.90
43151;DHT22;28755;51.478;5.702;2023-12-04T11:42:25;3.30;99.90
43151;DHT22;28755;51.478;5.702;2023-12-04T11:44:59;3.30;99.90
43151;DHT22;28755;51.478;5.702;2023-12-04T11:47:25;3.30;99.90
43151;DHT22;28755;51.478;5.702;2023-12-04T11:49:53;3.30;99.90
43151;DHT22;28755;51.478;5.702;2023-12-04T11:52:32;3.40;99.90
43151;DHT22;28755;51.478;5.702;2023-12-04T11:54:59;3.30;99.90
43151;DHT22;28755;51.478;5.702;2023-12-04T11:57:26;3.20;99.90
43151;DHT22;28755;51.478;5.702;2023-12-04T12:02:39;3.30;99.90
43151;DHT22;28755;51.478;5.702;2023-12-04T12:05:06;3.30;99.90
43151;DHT22;28755;51.478;5.702;2023-12-04T12:07:33;3.20;99.90
43151;DHT22;28755;51.478;5.702;2023-12-04T12:09:59;3.20;99.90
43151;DHT22;28755;51.478;5.702;2023-12-04T12:12:26;3.20;99.90
43151;DHT22;28755;51.478;5.702;2023-12-04T12:14:52;3.20;99.90
43151;DHT22;28755;51.478;5.702;2023-12-04T12:17:17;3.50;99.90
43151;DHT22;28755;51.478;5.702;2023-12-04T12:19:43;3.40;99.90
43151;DHT22;28755;51.478;5.702;2023-12-04T12:22:09;3.20;99.90
43151;DHT22;28755;51.478;5.702;2023-12-04T12:24:35;3.20;99.90
43151;DHT22;28755;51.478;5.702;2023-12-04T12:27:01;3.30;99.90
43151;DHT22;28755;51.478;5.702;2023-12-04T12:29:27;3.20;99.90
43151;DHT22;28755;51.478;5.702;2023-12-04T12:31:53;3.20;99.90
43151;DHT22;28755;51.478;5.702;2023-12-04T12:34:18;3.60;99.90
43151;DHT22;28755;51.478;5.702;2023-12-04T12:36:44;3.30;99.90
43151;DHT22;28755;51.478;5.702;2023-12-04T12:39:10;3.40;99.90
43151;DHT22;28755;51.478;5.702;2023-12-04T12:41:37;3.40;99.90
43151;DHT22;28755;51.478;5.702;2023-12-04T12:44:03;3.30;99.90
43151;DHT22;28755;51.478;5.702;2023-12-04T12:46:29;3.20;99.90
43151;DHT22;28755;51.478;5.702;2023-12-04T12:48:54;3.20;99.90
43151;DHT22;28755;51.478;5.702;2023-12-04T12:51:20;3.20;99.90
43151;DHT22;28755;51.478;5.702;2023-12-04T12:53:45;3.10;99.90
43151;DHT22;28755;51.478;5.702;2023-12-04T12:56:13;3.20;99.90
43151;DHT22;28755;51.478;5.702;2023-12-04T12:58:39;3.20;99.90
43151;DHT22;28755;51.478;5.702;2023-12-04T13:01:10;3.30;99.90
43151;DHT22;28755;51.478;5.702;2023-12-04T13:03:35;3.20;99.90
43151;DHT22;28755;51.478;5.702;2023-12-04T13:06:03;3.20;99.90
43151;DHT22;28755;51.478;5.702;2023-12-04T13:08:29;3.20;99.90
43151;DHT22;28755;51.478;5.702;2023-12-04T13:10:54;3.20;99.90
43151;DHT22;28755;51.478;5.702;2023-12-04T13:13:21;3.20;99.90
43151;DHT22;28755;51.478;5.702;2023-12-04T13:15:46;3.20;99.90
43151;DHT22;28755;51.478;5.702;2023-12-04T13:18:12;3.20;99.90
43151;DHT22;28755;51.478;5.702;2023-12-04T13:20:38;3.10;99.90
43151;DHT22;28755;51.478;5.702;2023-12-04T13:23:03;3.20;99.90
43151;DHT22;28755;51.478;5.702;2023-12-04T13:25:29;3.30;99.90
43151;DHT22;28755;51.478;5.702;2023-12-04T13:27:54;3.30;99.90
43151;DHT22;28755;51.478;5.702;2023-12-04T13:30:20;3.40;99.90
43151;DHT22;28755;51.478;5.702;2023-12-04T13:32:46;3.40;99.90
43151;DHT22;28755;51.478;5.702;2023-12-04T13:35:11;3.50;99.90
43151;DHT22;28755;51.478;5.702;2023-12-04T13:37:37;3.30;99.90
43151;DHT22;28755;51.478;5.702;2023-12-04T13:40:05;3.30;99.90
43151;DHT22;28755;51.478;5.702;2023-12-04T13:42:35;3.20;99.90
43151;DHT22;28755;51.478;5.702;2023-12-04T13:45:19;3.20;99.90
43151;DHT22;28755;51.478;5.702;2023-12-04T13:47:48;3.20;99.90
43151;DHT22;28755;51.478;5.702;2023-12-04T13:50:14;3.20;99.90
43151;DHT22;28755;51.478;5.702;2023-12-04T13:52:40;3.20;99.90
43151;DHT22;28755;51.478;5.702;2023-12-04T13:55:08;3.30;99.90
43151;DHT22;28755;51.478;5.702;2023-12-04T13:57:45;3.20;99.90
43151;DHT22;28755;51.478;5.702;2023-12-04T14:00:34;3.20;99.90
43151;DHT22;28755;51.478;5.702;2023-12-04T14:03:01;3.40;99.90
43151;DHT22;28755;51.478;5.702;2023-12-04T14:05:30;3.20;99.90
43151;DHT22;28755;51.478;5.702;2023-12-04T14:07:56;3.20;99.90
43151;DHT22;28755;51.478;5.702;2023-12-04T14:10:26;3.10;99.90
43151;DHT22;28755;51.478;5.702;2023-12-04T14:12:52;3.10;99.90
43151;DHT22;28755;51.478;5.702;2023-12-04T14:15:17;3.20;99.90
43151;DHT22;28755;51.478;5.702;2023-12-04T14:17:43;2.90;99.90
43151;DHT22;28755;51.478;5.702;2023-12-04T14:20:09;3.00;99.90
43151;DHT22;28755;51.478;5.702;2023-12-04T14:22:40;3.00;99.90
43151;DHT22;28755;51.478;5.702;2023-12-04T14:25:06;3.00;99.90
43151;DHT22;28755;51.478;5.702;2023-12-04T14:27:32;3.00;99.90
43151;DHT22;28755;51.478;5.702;2023-12-04T14:29:58;3.00;99.90
43151;DHT22;28755;51.478;5.702;2023-12-04T14:32:23;2.90;99.90
43151;DHT22;28755;51.478;5.702;2023-12-04T14:34:49;3.00;99.90
43151;DHT22;28755;51.478;5.702;2023-12-04T14:37:14;2.90;99.90
43151;DHT22;28755;51.478;5.702;2023-12-04T14:39:40;2.80;99.90
43151;DHT22;28755;51.478;5.702;2023-12-04T14:42:05;2.80;99.90
43151;DHT22;28755;51.478;5.702;2023-12-04T14:44:31;2.80;99.90
43151;DHT22;28755;51.478;5.702;2023-12-04T14:46:58;2.70;99.90
43151;DHT22;28755;51.478;5.702;2023-12-04T14:49:24;2.70;99.90
43151;DHT22;28755;51.478;5.702;2023-12-04T14:51:50;2.70;99.90
43151;DHT22;28755;51.478;5.702;2023-12-04T14:54:15;2.70;99.90
43151;DHT22;28755;51.478;5.702;2023-12-04T14:56:58;2.70;99.90
43151;DHT22;28755;51.478;5.702;2023-12-04T14:59:55;2.80;99.90
43151;DHT22;28755;51.478;5.702;2023-12-04T15:02:44;2.80;99.90
43151;DHT22;28755;51.478;5.702;2023-12-04T15:05:38;2.70;99.90
43151;DHT22;28755;51.478;5.702;2023-12-04T15:08:29;2.40;99.90
43151;DHT22;28755;51.478;5.702;2023-12-04T15:10:57;2.50;99.90
43151;DHT22;28755;51.478;5.702;2023-12-04T15:14:01;2.30;99.90
43151;DHT22;28755;51.478;5.702;2023-12-04T15:16:45;2.30;99.90
43151;DHT22;28755;51.478;5.702;2023-12-04T15:19:20;2.40;99.90
43151;DHT22;28755;51.478;5.702;2023-12-04T15:21:48;2.20;99.90
43151;DHT22;28755;51.478;5.702;2023-12-04T15:24:13;2.30;99.90
43151;DHT22;28755;51.478;5.702;2023-12-04T15:26:39;2.10;99.90
43151;DHT22;28755;51.478;5.702;2023-12-04T15:29:04;2.20;99.90
43151;DHT22;28755;51.478;5.702;2023-12-04T15:31:31;2.20;99.90
43151;DHT22;28755;51.478;5.702;2023-12-04T15:33:57;2.20;99.90
43151;DHT22;28755;51.478;5.702;2023-12-04T15:36:22;2.20;99.90
43151;DHT22;28755;51.478;5.702;2023-12-04T15:38:48;2.30;99.90
43151;DHT22;28755;51.478;5.702;2023-12-04T15:41:14;2.30;99.90
43151;DHT22;28755;51.478;5.702;2023-12-04T15:43:41;2.20;99.90
43151;DHT22;28755;51.478;5.702;2023-12-04T15:46:10;2.40;99.90
43151;DHT22;28755;51.478;5.702;2023-12-04T15:48:35;2.40;99.90